sensor_id;sensor_type;location;lat;lon;timestamp;P1;durP1;ratioP1;P2;durP2;ratioP2
63653;SDS011;49809;47.418;19.080;2022-11-04T00:07:12;18.92;;;7.32;;
63653;SDS011;49809;47.418;19.080;2022-11-04T00:11:01;18.10;;;7.75;;
63653;SDS011;49809;47.418;19.080;2022-11-04T00:18:27;26.25;;;8.70;;
63653;SDS011;49809;47.418;19.080;2022-11-04T00:22:08;17.08;;;8.07;;
63653;SDS011;49809;47.418;19.080;2022-11-04T00:26:17;15.93;;;7.45;;
63653;SDS011;49809;47.418;19.080;2022-11-04T00:30:39;21.33;;;8.43;;
63653;SDS011;49809;47.418;19.080;2022-11-04T00:34:29;18.05;;;7.97;;
63653;SDS011;49809;47.418;19.080;2022-11-04T00:46:24;16.27;;;6.87;;
63653;SDS011;49809;47.418;19.080;2022-11-04T00:53:44;13.82;;;6.97;;
63653;SDS011;49809;47.418;19.080;2022-11-04T00:57:13;14.55;;;6.43;;
63653;SDS011;49809;47.418;19.080;2022-11-04T01:00:49;16.42;;;6.40;;
63653;SDS011;49809;47.418;19.080;2022-11-04T01:04:34;15.07;;;6.22;;
63653;SDS011;49809;47.418;19.080;2022-11-04T01:12:10;15.32;;;6.87;;
63653;SDS011;49809;47.418;19.080;2022-11-04T01:15:43;16.33;;;7.32;;
63653;SDS011;49809;47.418;19.080;2022-11-04T01:19:22;18.48;;;7.85;;
63653;SDS011;49809;47.418;19.080;2022-11-04T01:34:28;13.00;;;6.40;;
63653;SDS011;49809;47.418;19.080;2022-11-04T01:38:08;17.52;;;6.47;;
63653;SDS011;49809;47.418;19.080;2022-11-04T01:41:46;14.23;;;7.28;;
63653;SDS011;49809;47.418;19.080;2022-11-04T01:45:17;13.45;;;6.43;;
63653;SDS011;49809;47.418;19.080;2022-11-04T01:53:17;18.27;;;7.53;;
63653;SDS011;49809;47.418;19.080;2022-11-04T01:57:04;15.55;;;6.78;;
63653;SDS011;49809;47.418;19.080;2022-11-04T02:05:01;16.98;;;7.18;;
63653;SDS011;49809;47.418;19.080;2022-11-04T02:09:04;17.25;;;7.78;;
63653;SDS011;49809;47.418;19.080;2022-11-04T02:12:43;20.40;;;8.43;;
63653;SDS011;49809;47.418;19.080;2022-11-04T02:16:41;18.95;;;6.85;;
63653;SDS011;49809;47.418;19.080;2022-11-04T02:28:50;20.37;;;8.87;;
63653;SDS011;49809;47.418;19.080;2022-11-04T02:41:20;19.45;;;9.30;;
63653;SDS011;49809;47.418;19.080;2022-11-04T02:45:20;17.58;;;7.80;;
63653;SDS011;49809;47.418;19.080;2022-11-04T02:49:16;16.52;;;8.20;;
63653;SDS011;49809;47.418;19.080;2022-11-04T02:53:09;21.90;;;8.18;;
63653;SDS011;49809;47.418;19.080;2022-11-04T02:56:43;20.02;;;8.00;;
63653;SDS011;49809;47.418;19.080;2022-11-04T03:00:20;16.62;;;7.18;;
63653;SDS011;49809;47.418;19.080;2022-11-04T03:03:41;21.27;;;8.05;;
63653;SDS011;49809;47.418;19.080;2022-11-04T03:11:13;17.50;;;7.55;;
63653;SDS011;49809;47.418;19.080;2022-11-04T03:26:46;19.48;;;7.55;;
63653;SDS011;49809;47.418;19.080;2022-11-04T03:30:26;20.98;;;8.55;;
63653;SDS011;49809;47.418;19.080;2022-11-04T03:34:31;19.15;;;9.70;;
63653;SDS011;49809;47.418;19.080;2022-11-04T03:38:15;21.52;;;7.97;;
63653;SDS011;49809;47.418;19.080;2022-11-04T03:41:53;20.70;;;8.68;;
63653;SDS011;49809;47.418;19.080;2022-11-04T03:45:34;22.65;;;8.90;;
63653;SDS011;49809;47.418;19.080;2022-11-04T03:49:06;17.67;;;8.15;;
63653;SDS011;49809;47.418;19.080;2022-11-04T03:52:38;21.17;;;7.97;;
63653;SDS011;49809;47.418;19.080;2022-11-04T04:04:13;18.73;;;7.85;;
63653;SDS011;49809;47.418;19.080;2022-11-04T04:08:34;15.63;;;7.47;;
63653;SDS011;49809;47.418;19.080;2022-11-04T04:12:34;26.83;;;9.55;;
63653;SDS011;49809;47.418;19.080;2022-11-04T04:20:29;21.12;;;8.68;;
63653;SDS011;49809;47.418;19.080;2022-11-04T04:27:56;17.90;;;7.70;;
63653;SDS011;49809;47.418;19.080;2022-11-04T04:31:30;19.35;;;8.10;;
63653;SDS011;49809;47.418;19.080;2022-11-04T04:35:17;23.40;;;8.68;;
63653;SDS011;49809;47.418;19.080;2022-11-04T04:39:22;21.70;;;8.45;;
63653;SDS011;49809;47.418;19.080;2022-11-04T04:47:46;17.33;;;7.70;;
63653;SDS011;49809;47.418;19.080;2022-11-04T04:51:46;23.33;;;8.32;;
63653;SDS011;49809;47.418;19.080;2022-11-04T04:59:07;25.27;;;8.60;;
63653;SDS011;49809;47.418;19.080;2022-11-04T05:02:53;15.15;;;7.40;;
63653;SDS011;49809;47.418;19.080;2022-11-04T05:06:29;15.93;;;7.50;;
63653;SDS011;49809;47.418;19.080;2022-11-04T05:10:10;13.88;;;7.15;;
63653;SDS011;49809;47.418;19.080;2022-11-04T05:14:17;16.02;;;7.87;;
63653;SDS011;49809;47.418;19.080;2022-11-04T05:17:59;25.58;;;8.73;;
63653;SDS011;49809;47.418;19.080;2022-11-04T05:21:52;19.25;;;8.75;;
63653;SDS011;49809;47.418;19.080;2022-11-04T05:29:54;17.90;;;8.65;;
63653;SDS011;49809;47.418;19.080;2022-11-04T05:33:27;18.25;;;9.77;;
63653;SDS011;49809;47.418;19.080;2022-11-04T05:36:59;18.50;;;9.93;;
63653;SDS011;49809;47.418;19.080;2022-11-04T05:40:31;17.55;;;9.07;;
63653;SDS011;49809;47.418;19.080;2022-11-04T05:44:04;21.25;;;9.45;;
63653;SDS011;49809;47.418;19.080;2022-11-04T05:47:42;19.30;;;8.90;;
63653;SDS011;49809;47.418;19.080;2022-11-04T05:52:04;20.62;;;8.48;;
63653;SDS011;49809;47.418;19.080;2022-11-04T05:55:30;23.98;;;9.70;;
63653;SDS011;49809;47.418;19.080;2022-11-04T05:59:08;22.70;;;9.65;;
63653;SDS011;49809;47.418;19.080;2022-11-04T06:02:40;21.25;;;8.95;;
63653;SDS011;49809;47.418;19.080;2022-11-04T06:06:23;18.40;;;8.82;;
63653;SDS011;49809;47.418;19.080;2022-11-04T06:17:35;22.62;;;9.55;;
63653;SDS011;49809;47.418;19.080;2022-11-04T06:25:02;22.17;;;10.88;;
63653;SDS011;49809;47.418;19.080;2022-11-04T06:28:55;27.30;;;10.88;;
63653;SDS011;49809;47.418;19.080;2022-11-04T06:39:50;23.98;;;10.40;;
63653;SDS011;49809;47.418;19.080;2022-11-04T06:43:14;18.48;;;8.32;;
63653;SDS011;49809;47.418;19.080;2022-11-04T06:46:36;21.87;;;9.77;;
63653;SDS011;49809;47.418;19.080;2022-11-04T06:50:06;19.48;;;9.95;;
63653;SDS011;49809;47.418;19.080;2022-11-04T06:53:33;25.15;;;10.10;;
63653;SDS011;49809;47.418;19.080;2022-11-04T06:57:22;21.27;;;9.65;;
63653;SDS011;49809;47.418;19.080;2022-11-04T07:00:48;26.90;;;9.73;;
63653;SDS011;49809;47.418;19.080;2022-11-04T07:04:36;21.75;;;9.55;;
63653;SDS011;49809;47.418;19.080;2022-11-04T07:08:10;23.55;;;8.85;;
63653;SDS011;49809;47.418;19.080;2022-11-04T07:11:47;23.17;;;9.18;;
63653;SDS011;49809;47.418;19.080;2022-11-04T07:19:32;22.55;;;8.38;;
63653;SDS011;49809;47.418;19.080;2022-11-04T07:23:00;25.95;;;10.23;;
63653;SDS011;49809;47.418;19.080;2022-11-04T07:26:41;22.23;;;8.73;;
63653;SDS011;49809;47.418;19.080;2022-11-04T07:30:22;27.58;;;9.27;;
63653;SDS011;49809;47.418;19.080;2022-11-04T07:34:05;20.50;;;8.48;;
63653;SDS011;49809;47.418;19.080;2022-11-04T07:37:24;28.48;;;9.98;;
63653;SDS011;49809;47.418;19.080;2022-11-04T07:41:08;21.35;;;9.52;;
63653;SDS011;49809;47.418;19.080;2022-11-04T07:48:44;22.77;;;9.45;;
63653;SDS011;49809;47.418;19.080;2022-11-04T07:56:05;23.10;;;9.05;;
63653;SDS011;49809;47.418;19.080;2022-11-04T07:59:44;19.62;;;8.98;;
63653;SDS011;49809;47.418;19.080;2022-11-04T08:03:11;25.37;;;9.05;;
63653;SDS011;49809;47.418;19.080;2022-11-04T08:07:06;21.20;;;9.65;;
63653;SDS011;49809;47.418;19.080;2022-11-04T08:10:57;22.10;;;9.73;;
63653;SDS011;49809;47.418;19.080;2022-11-04T08:14:36;22.55;;;10.63;;
63653;SDS011;49809;47.418;19.080;2022-11-04T08:18:12;19.75;;;10.27;;
63653;SDS011;49809;47.418;19.080;2022-11-04T08:21:47;20.20;;;9.10;;
63653;SDS011;49809;47.418;19.080;2022-11-04T08:25:27;19.60;;;8.60;;
63653;SDS011;49809;47.418;19.080;2022-11-04T08:29:10;25.17;;;10.35;;
63653;SDS011;49809;47.418;19.080;2022-11-04T08:33:03;19.85;;;8.35;;
63653;SDS011;49809;47.418;19.080;2022-11-04T08:36:41;24.33;;;10.52;;
63653;SDS011;49809;47.418;19.080;2022-11-04T08:40:17;23.38;;;10.50;;
63653;SDS011;49809;47.418;19.080;2022-11-04T08:43:57;27.05;;;9.82;;
63653;SDS011;49809;47.418;19.080;2022-11-04T08:47:37;23.25;;;10.20;;
63653;SDS011;49809;47.418;19.080;2022-11-04T08:56:27;22.00;;;9.93;;
63653;SDS011;49809;47.418;19.080;2022-11-04T09:08:18;27.35;;;10.68;;
63653;SDS011;49809;47.418;19.080;2022-11-04T09:19:17;24.10;;;10.20;;
63653;SDS011;49809;47.418;19.080;2022-11-04T09:22:57;18.40;;;9.82;;
63653;SDS011;49809;47.418;19.080;2022-11-04T09:30:09;24.27;;;10.88;;
63653;SDS011;49809;47.418;19.080;2022-11-04T09:33:32;23.30;;;11.35;;
63653;SDS011;49809;47.418;19.080;2022-11-04T09:37:21;27.00;;;12.32;;
63653;SDS011;49809;47.418;19.080;2022-11-04T09:52:48;24.92;;;11.60;;
63653;SDS011;49809;47.418;19.080;2022-11-04T09:56:48;24.55;;;11.80;;
63653;SDS011;49809;47.418;19.080;2022-11-04T10:00:39;25.23;;;12.25;;
63653;SDS011;49809;47.418;19.080;2022-11-04T10:13:05;37.05;;;13.43;;
63653;SDS011;49809;47.418;19.080;2022-11-04T10:28:40;26.05;;;12.35;;
63653;SDS011;49809;47.418;19.080;2022-11-04T10:36:12;24.75;;;12.45;;
63653;SDS011;49809;47.418;19.080;2022-11-04T10:39:42;25.35;;;12.80;;
63653;SDS011;49809;47.418;19.080;2022-11-04T10:43:14;35.85;;;13.93;;
63653;SDS011;49809;47.418;19.080;2022-11-04T10:51:10;30.17;;;13.10;;
63653;SDS011;49809;47.418;19.080;2022-11-04T10:54:29;25.83;;;12.45;;
63653;SDS011;49809;47.418;19.080;2022-11-04T10:58:19;25.20;;;12.32;;
63653;SDS011;49809;47.418;19.080;2022-11-04T11:01:51;22.67;;;11.40;;
63653;SDS011;49809;47.418;19.080;2022-11-04T11:05:35;24.27;;;12.48;;
63653;SDS011;49809;47.418;19.080;2022-11-04T11:13:06;25.02;;;11.90;;
63653;SDS011;49809;47.418;19.080;2022-11-04T11:21:15;28.60;;;12.65;;
63653;SDS011;49809;47.418;19.080;2022-11-04T11:29:00;20.70;;;10.05;;
63653;SDS011;49809;47.418;19.080;2022-11-04T11:32:46;26.90;;;12.63;;
63653;SDS011;49809;47.418;19.080;2022-11-04T11:40:26;20.67;;;11.60;;
63653;SDS011;49809;47.418;19.080;2022-11-04T11:44:03;26.33;;;11.93;;
63653;SDS011;49809;47.418;19.080;2022-11-04T11:47:52;23.95;;;12.10;;
63653;SDS011;49809;47.418;19.080;2022-11-04T11:51:34;26.33;;;12.45;;
63653;SDS011;49809;47.418;19.080;2022-11-04T11:59:00;24.75;;;12.85;;
63653;SDS011;49809;47.418;19.080;2022-11-04T12:10:50;25.73;;;12.15;;
63653;SDS011;49809;47.418;19.080;2022-11-04T12:36:42;25.88;;;12.07;;
63653;SDS011;49809;47.418;19.080;2022-11-04T12:40:44;27.23;;;11.98;;
63653;SDS011;49809;47.418;19.080;2022-11-04T13:06:01;25.73;;;12.73;;
63653;SDS011;49809;47.418;19.080;2022-11-04T13:13:37;28.62;;;11.80;;
63653;SDS011;49809;47.418;19.080;2022-11-04T13:17:17;23.00;;;11.65;;
63653;SDS011;49809;47.418;19.080;2022-11-04T13:21:10;25.42;;;11.48;;
63653;SDS011;49809;47.418;19.080;2022-11-04T13:29:17;22.37;;;10.68;;
63653;SDS011;49809;47.418;19.080;2022-11-04T13:33:20;20.52;;;10.40;;
63653;SDS011;49809;47.418;19.080;2022-11-04T13:37:24;20.37;;;10.10;;
63653;SDS011;49809;47.418;19.080;2022-11-04T13:50:05;22.92;;;11.00;;
63653;SDS011;49809;47.418;19.080;2022-11-04T13:58:14;25.35;;;11.95;;
63653;SDS011;49809;47.418;19.080;2022-11-04T14:06:06;20.90;;;10.07;;
63653;SDS011;49809;47.418;19.080;2022-11-04T14:14:18;21.35;;;9.48;;
63653;SDS011;49809;47.418;19.080;2022-11-04T14:17:57;28.52;;;10.43;;
63653;SDS011;49809;47.418;19.080;2022-11-04T14:26:09;23.27;;;10.05;;
63653;SDS011;49809;47.418;19.080;2022-11-04T14:29:48;18.53;;;9.27;;
63653;SDS011;49809;47.418;19.080;2022-11-04T14:33:51;18.08;;;10.02;;
63653;SDS011;49809;47.418;19.080;2022-11-04T14:37:54;21.98;;;10.95;;
63653;SDS011;49809;47.418;19.080;2022-11-04T14:41:53;24.17;;;9.88;;
63653;SDS011;49809;47.418;19.080;2022-11-04T14:45:41;20.83;;;10.38;;
63653;SDS011;49809;47.418;19.080;2022-11-04T14:49:17;21.80;;;9.93;;
63653;SDS011;49809;47.418;19.080;2022-11-04T14:53:13;26.92;;;11.85;;
63653;SDS011;49809;47.418;19.080;2022-11-04T14:56:49;24.55;;;11.10;;
63653;SDS011;49809;47.418;19.080;2022-11-04T15:04:49;23.10;;;10.73;;
63653;SDS011;49809;47.418;19.080;2022-11-04T15:08:43;22.83;;;11.43;;
63653;SDS011;49809;47.418;19.080;2022-11-04T15:12:31;20.12;;;10.55;;
63653;SDS011;49809;47.418;19.080;2022-11-04T15:20:27;20.80;;;10.27;;
63653;SDS011;49809;47.418;19.080;2022-11-04T15:23:56;20.80;;;10.52;;
63653;SDS011;49809;47.418;19.080;2022-11-04T15:27:46;22.20;;;10.90;;
63653;SDS011;49809;47.418;19.080;2022-11-04T15:31:23;24.83;;;11.93;;
63653;SDS011;49809;47.418;19.080;2022-11-04T15:35:02;29.05;;;12.75;;
63653;SDS011;49809;47.418;19.080;2022-11-04T15:38:31;29.90;;;13.65;;
63653;SDS011;49809;47.418;19.080;2022-11-04T15:42:19;20.73;;;11.10;;
63653;SDS011;49809;47.418;19.080;2022-11-04T15:46:24;26.30;;;10.80;;
63653;SDS011;49809;47.418;19.080;2022-11-04T15:57:51;17.50;;;9.43;;
63653;SDS011;49809;47.418;19.080;2022-11-04T16:42:56;18.92;;;10.55;;
63653;SDS011;49809;47.418;19.080;2022-11-04T16:47:39;24.33;;;11.02;;
63653;SDS011;49809;47.418;19.080;2022-11-04T16:56:04;21.35;;;11.23;;
63653;SDS011;49809;47.418;19.080;2022-11-04T16:59:41;21.20;;;11.93;;
63653;SDS011;49809;47.418;19.080;2022-11-04T17:03:33;28.15;;;11.40;;
63653;SDS011;49809;47.418;19.080;2022-11-04T17:07:52;32.75;;;16.70;;
63653;SDS011;49809;47.418;19.080;2022-11-04T17:11:45;32.33;;;18.10;;
63653;SDS011;49809;47.418;19.080;2022-11-04T17:15:41;22.87;;;11.60;;
63653;SDS011;49809;47.418;19.080;2022-11-04T17:20:07;23.48;;;12.00;;
63653;SDS011;49809;47.418;19.080;2022-11-04T17:24:12;24.37;;;11.55;;
63653;SDS011;49809;47.418;19.080;2022-11-04T17:28:06;25.62;;;10.93;;
63653;SDS011;49809;47.418;19.080;2022-11-04T17:31:56;21.10;;;11.30;;
63653;SDS011;49809;47.418;19.080;2022-11-04T17:35:45;23.23;;;11.93;;
63653;SDS011;49809;47.418;19.080;2022-11-04T17:39:37;20.92;;;11.88;;
63653;SDS011;49809;47.418;19.080;2022-11-04T17:43:30;27.15;;;13.45;;
63653;SDS011;49809;47.418;19.080;2022-11-04T17:51:42;25.98;;;12.50;;
63653;SDS011;49809;47.418;19.080;2022-11-04T18:06:59;26.02;;;13.48;;
63653;SDS011;49809;47.418;19.080;2022-11-04T18:10:36;23.75;;;12.65;;
63653;SDS011;49809;47.418;19.080;2022-11-04T18:14:48;22.98;;;12.65;;
63653;SDS011;49809;47.418;19.080;2022-11-04T18:18:30;26.98;;;12.02;;
63653;SDS011;49809;47.418;19.080;2022-11-04T18:22:16;25.02;;;11.77;;
63653;SDS011;49809;47.418;19.080;2022-11-04T18:36:56;23.80;;;11.50;;
63653;SDS011;49809;47.418;19.080;2022-11-04T18:44:41;27.92;;;11.45;;
63653;SDS011;49809;47.418;19.080;2022-11-04T18:48:14;26.20;;;11.93;;
63653;SDS011;49809;47.418;19.080;2022-11-04T18:51:55;21.55;;;12.40;;
63653;SDS011;49809;47.418;19.080;2022-11-04T18:55:59;22.23;;;11.55;;
63653;SDS011;49809;47.418;19.080;2022-11-04T18:59:55;28.20;;;13.05;;
63653;SDS011;49809;47.418;19.080;2022-11-04T19:03:36;23.23;;;12.73;;
63653;SDS011;49809;47.418;19.080;2022-11-04T19:12:01;22.27;;;12.93;;
63653;SDS011;49809;47.418;19.080;2022-11-04T19:15:49;23.98;;;13.00;;
63653;SDS011;49809;47.418;19.080;2022-11-04T19:23:33;27.62;;;13.13;;
63653;SDS011;49809;47.418;19.080;2022-11-04T19:27:17;23.85;;;12.00;;
63653;SDS011;49809;47.418;19.080;2022-11-04T19:31:02;23.08;;;11.73;;
63653;SDS011;49809;47.418;19.080;2022-11-04T19:35:30;21.35;;;11.60;;
63653;SDS011;49809;47.418;19.080;2022-11-04T19:39:05;22.67;;;11.25;;
63653;SDS011;49809;47.418;19.080;2022-11-04T19:42:51;24.48;;;11.12;;
63653;SDS011;49809;47.418;19.080;2022-11-04T19:47:07;25.85;;;11.45;;
63653;SDS011;49809;47.418;19.080;2022-11-04T19:50:38;26.08;;;10.98;;
63653;SDS011;49809;47.418;19.080;2022-11-04T19:54:21;24.02;;;11.80;;
63653;SDS011;49809;47.418;19.080;2022-11-04T20:01:46;22.02;;;11.00;;
63653;SDS011;49809;47.418;19.080;2022-11-04T20:05:27;21.50;;;11.27;;
63653;SDS011;49809;47.418;19.080;2022-11-04T20:09:08;23.08;;;12.18;;
63653;SDS011;49809;47.418;19.080;2022-11-04T20:12:42;21.27;;;11.55;;
63653;SDS011;49809;47.418;19.080;2022-11-04T20:16:42;23.85;;;12.60;;
63653;SDS011;49809;47.418;19.080;2022-11-04T20:20:17;25.92;;;12.75;;
63653;SDS011;49809;47.418;19.080;2022-11-04T20:46:20;21.27;;;11.12;;
63653;SDS011;49809;47.418;19.080;2022-11-04T20:50:14;24.50;;;11.95;;
63653;SDS011;49809;47.418;19.080;2022-11-04T20:54:09;30.17;;;12.48;;
63653;SDS011;49809;47.418;19.080;2022-11-04T20:57:38;23.15;;;11.52;;
63653;SDS011;49809;47.418;19.080;2022-11-04T21:05:11;23.08;;;11.52;;
63653;SDS011;49809;47.418;19.080;2022-11-04T21:09:28;28.02;;;12.18;;
63653;SDS011;49809;47.418;19.080;2022-11-04T21:13:05;24.55;;;11.75;;
63653;SDS011;49809;47.418;19.080;2022-11-04T21:16:50;23.58;;;11.40;;
63653;SDS011;49809;47.418;19.080;2022-11-04T21:20:27;25.37;;;12.25;;
63653;SDS011;49809;47.418;19.080;2022-11-04T21:24:14;22.27;;;11.75;;
63653;SDS011;49809;47.418;19.080;2022-11-04T21:27:56;21.60;;;11.30;;
63653;SDS011;49809;47.418;19.080;2022-11-04T21:32:02;21.05;;;11.80;;
63653;SDS011;49809;47.418;19.080;2022-11-04T21:35:37;27.33;;;11.60;;
63653;SDS011;49809;47.418;19.080;2022-11-04T21:39:04;19.30;;;10.45;;
63653;SDS011;49809;47.418;19.080;2022-11-04T21:42:46;23.48;;;11.57;;
63653;SDS011;49809;47.418;19.080;2022-11-04T21:46:48;22.02;;;11.30;;
63653;SDS011;49809;47.418;19.080;2022-11-04T21:50:31;20.58;;;9.50;;
63653;SDS011;49809;47.418;19.080;2022-11-04T21:54:17;19.50;;;10.80;;
63653;SDS011;49809;47.418;19.080;2022-11-04T21:58:00;20.62;;;10.80;;
63653;SDS011;49809;47.418;19.080;2022-11-04T22:05:16;18.25;;;10.20;;
63653;SDS011;49809;47.418;19.080;2022-11-04T22:08:44;20.65;;;10.48;;
63653;SDS011;49809;47.418;19.080;2022-11-04T22:12:03;23.12;;;11.38;;
63653;SDS011;49809;47.418;19.080;2022-11-04T22:15:53;22.25;;;11.07;;
63653;SDS011;49809;47.418;19.080;2022-11-04T22:19:23;21.23;;;11.38;;
63653;SDS011;49809;47.418;19.080;2022-11-04T22:23:15;23.00;;;11.35;;
63653;SDS011;49809;47.418;19.080;2022-11-04T22:26:46;19.20;;;10.95;;
63653;SDS011;49809;47.418;19.080;2022-11-04T22:30:29;29.65;;;14.10;;
63653;SDS011;49809;47.418;19.080;2022-11-04T22:34:19;35.50;;;15.10;;
63653;SDS011;49809;47.418;19.080;2022-11-04T22:37:55;37.72;;;15.55;;
63653;SDS011;49809;47.418;19.080;2022-11-04T22:41:32;37.08;;;15.35;;
63653;SDS011;49809;47.418;19.080;2022-11-04T22:45:07;34.17;;;14.63;;
63653;SDS011;49809;47.418;19.080;2022-11-04T22:48:54;27.20;;;12.95;;
63653;SDS011;49809;47.418;19.080;2022-11-04T22:56:08;26.65;;;11.32;;
63653;SDS011;49809;47.418;19.080;2022-11-04T22:59:40;26.58;;;11.50;;
63653;SDS011;49809;47.418;19.080;2022-11-04T23:07:15;23.23;;;10.50;;
63653;SDS011;49809;47.418;19.080;2022-11-04T23:10:43;21.40;;;9.63;;
63653;SDS011;49809;47.418;19.080;2022-11-04T23:14:51;19.48;;;9.05;;
63653;SDS011;49809;47.418;19.080;2022-11-04T23:19:24;18.98;;;8.75;;
63653;SDS011;49809;47.418;19.080;2022-11-04T23:23:07;18.60;;;7.70;;
63653;SDS011;49809;47.418;19.080;2022-11-04T23:31:13;17.08;;;7.18;;
63653;SDS011;49809;47.418;19.080;2022-11-04T23:38:47;18.23;;;6.90;;
63653;SDS011;49809;47.418;19.080;2022-11-04T23:46:13;12.93;;;6.10;;
63653;SDS011;49809;47.418;19.080;2022-11-04T23:50:16;12.02;;;5.80;;
63653;SDS011;49809;47.418;19.080;2022-11-04T23:54:25;9.65;;;4.40;;
